sensor_id;sensor_type;location;lat;lon;timestamp;P1;durP1;ratioP1;P2;durP2;ratioP2
6077;SDS011;3067;49.470;10.394;2023-01-13T00:00:07;1.47;;;0.80;;
6077;SDS011;3067;49.470;10.394;2023-01-13T00:02:34;1.00;;;0.80;;
6077;SDS011;3067;49.470;10.394;2023-01-13T00:05:02;0.63;;;0.63;;
6077;SDS011;3067;49.470;10.394;2023-01-13T00:07:29;0.80;;;0.73;;
6077;SDS011;3067;49.470;10.394;2023-01-13T00:09:56;0.70;;;0.70;;
6077;SDS011;3067;49.470;10.394;2023-01-13T00:12:23;2.47;;;0.90;;
6077;SDS011;3067;49.470;10.394;2023-01-13T00:14:51;0.70;;;0.70;;
6077;SDS011;3067;49.470;10.394;2023-01-13T00:17:21;0.67;;;0.67;;
6077;SDS011;3067;49.470;10.394;2023-01-13T00:19:48;0.90;;;0.80;;
6077;SDS011;3067;49.470;10.394;2023-01-13T00:22:15;1.83;;;1.00;;
6077;SDS011;3067;49.470;10.394;2023-01-13T00:24:43;0.97;;;0.77;;
6077;SDS011;3067;49.470;10.394;2023-01-13T00:27:10;1.23;;;0.80;;
6077;SDS011;3067;49.470;10.394;2023-01-13T00:29:37;3.53;;;0.70;;
6077;SDS011;3067;49.470;10.394;2023-01-13T00:32:04;1.07;;;0.97;;
6077;SDS011;3067;49.470;10.394;2023-01-13T00:34:33;1.03;;;0.83;;
6077;SDS011;3067;49.470;10.394;2023-01-13T00:37:00;0.70;;;0.70;;
6077;SDS011;3067;49.470;10.394;2023-01-13T00:39:28;0.73;;;0.73;;
6077;SDS011;3067;49.470;10.394;2023-01-13T00:41:55;1.00;;;0.80;;
6077;SDS011;3067;49.470;10.394;2023-01-13T00:44:40;1.90;;;0.90;;
6077;SDS011;3067;49.470;10.394;2023-01-13T00:47:07;0.90;;;0.90;;
6077;SDS011;3067;49.470;10.394;2023-01-13T00:49:36;2.07;;;0.77;;
6077;SDS011;3067;49.470;10.394;2023-01-13T00:52:03;1.30;;;0.80;;
6077;SDS011;3067;49.470;10.394;2023-01-13T00:54:31;1.43;;;0.80;;
6077;SDS011;3067;49.470;10.394;2023-01-13T00:56:58;1.43;;;0.87;;
6077;SDS011;3067;49.470;10.394;2023-01-13T00:59:25;1.47;;;0.77;;
6077;SDS011;3067;49.470;10.394;2023-01-13T01:01:53;2.40;;;0.90;;
6077;SDS011;3067;49.470;10.394;2023-01-13T01:04:20;3.90;;;0.83;;
6077;SDS011;3067;49.470;10.394;2023-01-13T01:06:49;0.70;;;0.70;;
6077;SDS011;3067;49.470;10.394;2023-01-13T01:09:16;1.03;;;0.80;;
6077;SDS011;3067;49.470;10.394;2023-01-13T01:11:44;1.67;;;0.80;;
6077;SDS011;3067;49.470;10.394;2023-01-13T01:14:12;1.57;;;0.80;;
6077;SDS011;3067;49.470;10.394;2023-01-13T01:16:40;2.13;;;0.73;;
6077;SDS011;3067;49.470;10.394;2023-01-13T01:19:08;2.23;;;0.80;;
6077;SDS011;3067;49.470;10.394;2023-01-13T01:21:36;0.83;;;0.83;;
6077;SDS011;3067;49.470;10.394;2023-01-13T01:24:05;0.70;;;0.70;;
6077;SDS011;3067;49.470;10.394;2023-01-13T01:26:32;2.20;;;0.80;;
6077;SDS011;3067;49.470;10.394;2023-01-13T01:28:59;3.03;;;0.83;;
6077;SDS011;3067;49.470;10.394;2023-01-13T01:31:28;0.70;;;0.70;;
6077;SDS011;3067;49.470;10.394;2023-01-13T01:33:57;0.77;;;0.77;;
6077;SDS011;3067;49.470;10.394;2023-01-13T01:36:24;1.53;;;0.70;;
6077;SDS011;3067;49.470;10.394;2023-01-13T01:38:54;0.90;;;0.90;;
6077;SDS011;3067;49.470;10.394;2023-01-13T01:41:24;0.70;;;0.70;;
6077;SDS011;3067;49.470;10.394;2023-01-13T01:43:52;1.80;;;0.80;;
6077;SDS011;3067;49.470;10.394;2023-01-13T01:46:31;0.60;;;0.60;;
6077;SDS011;3067;49.470;10.394;2023-01-13T01:49:00;1.33;;;0.70;;
6077;SDS011;3067;49.470;10.394;2023-01-13T01:51:29;1.43;;;0.83;;
6077;SDS011;3067;49.470;10.394;2023-01-13T01:53:58;1.37;;;0.70;;
6077;SDS011;3067;49.470;10.394;2023-01-13T01:56:27;0.60;;;0.60;;
6077;SDS011;3067;49.470;10.394;2023-01-13T01:58:55;0.73;;;0.73;;
6077;SDS011;3067;49.470;10.394;2023-01-13T02:01:22;2.13;;;0.70;;
6077;SDS011;3067;49.470;10.394;2023-01-13T02:03:51;0.90;;;0.70;;
6077;SDS011;3067;49.470;10.394;2023-01-13T02:06:20;1.77;;;0.80;;
6077;SDS011;3067;49.470;10.394;2023-01-13T02:08:47;2.27;;;1.00;;
6077;SDS011;3067;49.470;10.394;2023-01-13T02:11:32;1.13;;;0.90;;
6077;SDS011;3067;49.470;10.394;2023-01-13T02:14:17;1.63;;;0.80;;
6077;SDS011;3067;49.470;10.394;2023-01-13T02:16:47;1.90;;;0.70;;
6077;SDS011;3067;49.470;10.394;2023-01-13T02:19:24;1.27;;;0.83;;
6077;SDS011;3067;49.470;10.394;2023-01-13T02:22:01;0.80;;;0.80;;
6077;SDS011;3067;49.470;10.394;2023-01-13T02:27:35;0.70;;;0.70;;
6077;SDS011;3067;49.470;10.394;2023-01-13T02:30:08;1.00;;;0.80;;
6077;SDS011;3067;49.470;10.394;2023-01-13T02:33:00;1.27;;;0.80;;
6077;SDS011;3067;49.470;10.394;2023-01-13T02:35:31;1.40;;;0.70;;
6077;SDS011;3067;49.470;10.394;2023-01-13T02:38:00;0.80;;;0.80;;
6077;SDS011;3067;49.470;10.394;2023-01-13T02:40:30;2.10;;;0.77;;
6077;SDS011;3067;49.470;10.394;2023-01-13T02:43:00;0.60;;;0.60;;
6077;SDS011;3067;49.470;10.394;2023-01-13T02:45:49;2.00;;;0.90;;
6077;SDS011;3067;49.470;10.394;2023-01-13T02:48:17;1.70;;;0.80;;
6077;SDS011;3067;49.470;10.394;2023-01-13T02:50:47;2.03;;;0.80;;
6077;SDS011;3067;49.470;10.394;2023-01-13T02:53:17;1.30;;;0.70;;
6077;SDS011;3067;49.470;10.394;2023-01-13T02:55:45;0.80;;;0.70;;
6077;SDS011;3067;49.470;10.394;2023-01-13T02:58:15;1.87;;;0.83;;
6077;SDS011;3067;49.470;10.394;2023-01-13T03:00:43;2.20;;;0.80;;
6077;SDS011;3067;49.470;10.394;2023-01-13T03:03:12;2.30;;;0.70;;
6077;SDS011;3067;49.470;10.394;2023-01-13T03:05:40;3.33;;;0.60;;
6077;SDS011;3067;49.470;10.394;2023-01-13T03:08:15;0.80;;;0.80;;
6077;SDS011;3067;49.470;10.394;2023-01-13T03:10:54;1.20;;;0.60;;
6077;SDS011;3067;49.470;10.394;2023-01-13T03:13:25;3.57;;;0.90;;
6077;SDS011;3067;49.470;10.394;2023-01-13T03:15:54;1.13;;;0.70;;
6077;SDS011;3067;49.470;10.394;2023-01-13T03:18:31;0.73;;;0.73;;
6077;SDS011;3067;49.470;10.394;2023-01-13T03:21:03;1.23;;;0.90;;
6077;SDS011;3067;49.470;10.394;2023-01-13T03:23:33;1.00;;;0.70;;
6077;SDS011;3067;49.470;10.394;2023-01-13T03:26:03;3.87;;;0.90;;
6077;SDS011;3067;49.470;10.394;2023-01-13T03:28:32;1.33;;;0.70;;
6077;SDS011;3067;49.470;10.394;2023-01-13T03:31:02;0.80;;;0.80;;
6077;SDS011;3067;49.470;10.394;2023-01-13T03:33:33;0.87;;;0.70;;
6077;SDS011;3067;49.470;10.394;2023-01-13T03:36:01;0.80;;;0.80;;
6077;SDS011;3067;49.470;10.394;2023-01-13T03:38:32;0.80;;;0.80;;
6077;SDS011;3067;49.470;10.394;2023-01-13T03:41:00;1.80;;;0.70;;
6077;SDS011;3067;49.470;10.394;2023-01-13T03:43:33;1.10;;;0.93;;
6077;SDS011;3067;49.470;10.394;2023-01-13T03:46:20;2.20;;;1.13;;
6077;SDS011;3067;49.470;10.394;2023-01-13T03:48:50;2.10;;;0.77;;
6077;SDS011;3067;49.470;10.394;2023-01-13T03:51:21;1.23;;;0.70;;
6077;SDS011;3067;49.470;10.394;2023-01-13T03:53:51;0.70;;;0.70;;
6077;SDS011;3067;49.470;10.394;2023-01-13T03:56:21;0.80;;;0.60;;
6077;SDS011;3067;49.470;10.394;2023-01-13T03:58:51;0.90;;;0.70;;
6077;SDS011;3067;49.470;10.394;2023-01-13T04:01:20;1.70;;;0.90;;
6077;SDS011;3067;49.470;10.394;2023-01-13T04:03:51;1.03;;;0.80;;
6077;SDS011;3067;49.470;10.394;2023-01-13T04:06:22;0.70;;;0.70;;
6077;SDS011;3067;49.470;10.394;2023-01-13T04:08:52;0.70;;;0.70;;
6077;SDS011;3067;49.470;10.394;2023-01-13T04:11:23;2.10;;;0.93;;
6077;SDS011;3067;49.470;10.394;2023-01-13T04:13:54;1.67;;;0.90;;
6077;SDS011;3067;49.470;10.394;2023-01-13T04:16:22;0.90;;;0.80;;
6077;SDS011;3067;49.470;10.394;2023-01-13T04:18:51;0.70;;;0.70;;
6077;SDS011;3067;49.470;10.394;2023-01-13T04:21:18;0.60;;;0.60;;
6077;SDS011;3067;49.470;10.394;2023-01-13T04:23:46;2.40;;;0.83;;
6077;SDS011;3067;49.470;10.394;2023-01-13T04:26:15;0.60;;;0.60;;
6077;SDS011;3067;49.470;10.394;2023-01-13T04:28:43;1.20;;;0.90;;
6077;SDS011;3067;49.470;10.394;2023-01-13T04:31:11;0.53;;;0.53;;
6077;SDS011;3067;49.470;10.394;2023-01-13T04:33:38;1.53;;;0.80;;
6077;SDS011;3067;49.470;10.394;2023-01-13T04:36:07;0.60;;;0.60;;
6077;SDS011;3067;49.470;10.394;2023-01-13T04:38:34;1.23;;;0.70;;
6077;SDS011;3067;49.470;10.394;2023-01-13T04:41:03;0.70;;;0.70;;
6077;SDS011;3067;49.470;10.394;2023-01-13T04:43:30;0.80;;;0.60;;
6077;SDS011;3067;49.470;10.394;2023-01-13T04:45:57;1.30;;;0.60;;
6077;SDS011;3067;49.470;10.394;2023-01-13T04:48:25;2.47;;;0.80;;
6077;SDS011;3067;49.470;10.394;2023-01-13T04:50:52;0.80;;;0.80;;
6077;SDS011;3067;49.470;10.394;2023-01-13T04:53:21;2.30;;;0.90;;
6077;SDS011;3067;49.470;10.394;2023-01-13T04:55:48;0.70;;;0.70;;
6077;SDS011;3067;49.470;10.394;2023-01-13T04:58:16;0.60;;;0.60;;
6077;SDS011;3067;49.470;10.394;2023-01-13T05:00:43;18.93;;;1.37;;
6077;SDS011;3067;49.470;10.394;2023-01-13T05:03:11;1.27;;;0.60;;
6077;SDS011;3067;49.470;10.394;2023-01-13T05:05:38;0.63;;;0.63;;
6077;SDS011;3067;49.470;10.394;2023-01-13T05:08:06;1.57;;;0.93;;
6077;SDS011;3067;49.470;10.394;2023-01-13T05:10:35;0.60;;;0.60;;
6077;SDS011;3067;49.470;10.394;2023-01-13T05:13:02;1.77;;;0.80;;
6077;SDS011;3067;49.470;10.394;2023-01-13T05:15:47;0.90;;;0.70;;
6077;SDS011;3067;49.470;10.394;2023-01-13T05:18:32;1.67;;;0.60;;
6077;SDS011;3067;49.470;10.394;2023-01-13T05:20:59;0.67;;;0.67;;
6077;SDS011;3067;49.470;10.394;2023-01-13T05:23:27;0.60;;;0.60;;
6077;SDS011;3067;49.470;10.394;2023-01-13T05:26:13;0.67;;;0.67;;
6077;SDS011;3067;49.470;10.394;2023-01-13T05:28:40;0.80;;;0.77;;
6077;SDS011;3067;49.470;10.394;2023-01-13T05:31:07;0.70;;;0.70;;
6077;SDS011;3067;49.470;10.394;2023-01-13T05:33:36;1.37;;;0.60;;
6077;SDS011;3067;49.470;10.394;2023-01-13T05:36:03;1.00;;;0.70;;
6077;SDS011;3067;49.470;10.394;2023-01-13T05:38:30;0.67;;;0.67;;
6077;SDS011;3067;49.470;10.394;2023-01-13T05:40:58;0.87;;;0.70;;
6077;SDS011;3067;49.470;10.394;2023-01-13T05:43:44;0.70;;;0.70;;
6077;SDS011;3067;49.470;10.394;2023-01-13T05:46:11;1.90;;;0.60;;
6077;SDS011;3067;49.470;10.394;2023-01-13T05:48:41;0.63;;;0.63;;
6077;SDS011;3067;49.470;10.394;2023-01-13T05:51:10;0.60;;;0.60;;
6077;SDS011;3067;49.470;10.394;2023-01-13T05:53:37;0.60;;;0.60;;
6077;SDS011;3067;49.470;10.394;2023-01-13T05:56:06;1.83;;;0.70;;
6077;SDS011;3067;49.470;10.394;2023-01-13T05:58:33;0.80;;;0.70;;
6077;SDS011;3067;49.470;10.394;2023-01-13T06:01:03;1.57;;;0.63;;
6077;SDS011;3067;49.470;10.394;2023-01-13T06:03:30;0.90;;;0.60;;
6077;SDS011;3067;49.470;10.394;2023-01-13T06:05:57;1.37;;;0.80;;
6077;SDS011;3067;49.470;10.394;2023-01-13T06:08:26;0.60;;;0.60;;
6077;SDS011;3067;49.470;10.394;2023-01-13T06:10:53;1.57;;;0.70;;
6077;SDS011;3067;49.470;10.394;2023-01-13T06:13:21;0.87;;;0.87;;
6077;SDS011;3067;49.470;10.394;2023-01-13T06:15:49;1.50;;;0.70;;
6077;SDS011;3067;49.470;10.394;2023-01-13T06:18:18;0.70;;;0.70;;
6077;SDS011;3067;49.470;10.394;2023-01-13T06:20:45;2.33;;;0.70;;
6077;SDS011;3067;49.470;10.394;2023-01-13T06:23:13;0.60;;;0.60;;
6077;SDS011;3067;49.470;10.394;2023-01-13T06:25:42;0.70;;;0.70;;
6077;SDS011;3067;49.470;10.394;2023-01-13T06:28:10;1.33;;;0.70;;
6077;SDS011;3067;49.470;10.394;2023-01-13T06:30:39;0.70;;;0.70;;
6077;SDS011;3067;49.470;10.394;2023-01-13T06:33:08;1.17;;;0.70;;
6077;SDS011;3067;49.470;10.394;2023-01-13T06:35:39;1.27;;;0.80;;
6077;SDS011;3067;49.470;10.394;2023-01-13T06:38:08;6.00;;;0.70;;
6077;SDS011;3067;49.470;10.394;2023-01-13T06:40:36;1.50;;;0.80;;
6077;SDS011;3067;49.470;10.394;2023-01-13T06:43:04;1.17;;;0.70;;
6077;SDS011;3067;49.470;10.394;2023-01-13T06:45:39;1.37;;;0.70;;
6077;SDS011;3067;49.470;10.394;2023-01-13T06:48:06;1.13;;;0.70;;
6077;SDS011;3067;49.470;10.394;2023-01-13T06:50:34;2.03;;;0.70;;
6077;SDS011;3067;49.470;10.394;2023-01-13T06:53:02;0.90;;;0.60;;
6077;SDS011;3067;49.470;10.394;2023-01-13T06:55:30;0.93;;;0.67;;
6077;SDS011;3067;49.470;10.394;2023-01-13T06:57:57;0.83;;;0.83;;
6077;SDS011;3067;49.470;10.394;2023-01-13T07:00:24;0.63;;;0.63;;
6077;SDS011;3067;49.470;10.394;2023-01-13T07:02:52;0.80;;;0.70;;
6077;SDS011;3067;49.470;10.394;2023-01-13T07:05:19;0.80;;;0.80;;
6077;SDS011;3067;49.470;10.394;2023-01-13T07:07:47;1.33;;;0.60;;
6077;SDS011;3067;49.470;10.394;2023-01-13T07:10:16;0.60;;;0.60;;
6077;SDS011;3067;49.470;10.394;2023-01-13T07:12:47;1.47;;;0.80;;
6077;SDS011;3067;49.470;10.394;2023-01-13T07:15:33;0.93;;;0.73;;
6077;SDS011;3067;49.470;10.394;2023-01-13T07:18:00;1.70;;;0.80;;
6077;SDS011;3067;49.470;10.394;2023-01-13T07:20:28;0.60;;;0.60;;
6077;SDS011;3067;49.470;10.394;2023-01-13T07:22:56;0.80;;;0.80;;
6077;SDS011;3067;49.470;10.394;2023-01-13T07:25:25;1.00;;;0.80;;
6077;SDS011;3067;49.470;10.394;2023-01-13T07:27:52;0.77;;;0.70;;
6077;SDS011;3067;49.470;10.394;2023-01-13T07:30:19;1.07;;;0.53;;
6077;SDS011;3067;49.470;10.394;2023-01-13T07:32:47;0.87;;;0.70;;
6077;SDS011;3067;49.470;10.394;2023-01-13T07:35:14;0.60;;;0.60;;
6077;SDS011;3067;49.470;10.394;2023-01-13T07:37:45;0.60;;;0.60;;
6077;SDS011;3067;49.470;10.394;2023-01-13T07:40:15;1.27;;;1.00;;
6077;SDS011;3067;49.470;10.394;2023-01-13T07:42:43;0.97;;;0.80;;
6077;SDS011;3067;49.470;10.394;2023-01-13T07:45:28;0.70;;;0.70;;
6077;SDS011;3067;49.470;10.394;2023-01-13T07:47:56;1.03;;;0.60;;
6077;SDS011;3067;49.470;10.394;2023-01-13T07:50:23;0.60;;;0.60;;
6077;SDS011;3067;49.470;10.394;2023-01-13T07:52:50;1.10;;;0.60;;
6077;SDS011;3067;49.470;10.394;2023-01-13T07:55:18;2.60;;;0.70;;
6077;SDS011;3067;49.470;10.394;2023-01-13T07:57:47;0.63;;;0.63;;
6077;SDS011;3067;49.470;10.394;2023-01-13T08:00:15;0.60;;;0.60;;
6077;SDS011;3067;49.470;10.394;2023-01-13T08:02:43;0.60;;;0.60;;
6077;SDS011;3067;49.470;10.394;2023-01-13T08:05:10;0.70;;;0.70;;
6077;SDS011;3067;49.470;10.394;2023-01-13T08:07:37;0.60;;;0.60;;
6077;SDS011;3067;49.470;10.394;2023-01-13T08:10:06;0.50;;;0.50;;
6077;SDS011;3067;49.470;10.394;2023-01-13T08:12:33;0.70;;;0.60;;
6077;SDS011;3067;49.470;10.394;2023-01-13T08:15:19;0.90;;;0.70;;
6077;SDS011;3067;49.470;10.394;2023-01-13T08:17:46;0.60;;;0.60;;
6077;SDS011;3067;49.470;10.394;2023-01-13T08:20:14;1.00;;;0.70;;
6077;SDS011;3067;49.470;10.394;2023-01-13T08:22:41;0.60;;;0.60;;
6077;SDS011;3067;49.470;10.394;2023-01-13T08:25:09;0.70;;;0.70;;
6077;SDS011;3067;49.470;10.394;2023-01-13T08:27:36;1.53;;;0.80;;
6077;SDS011;3067;49.470;10.394;2023-01-13T08:30:04;0.67;;;0.60;;
6077;SDS011;3067;49.470;10.394;2023-01-13T08:32:33;0.60;;;0.60;;
6077;SDS011;3067;49.470;10.394;2023-01-13T08:35:00;0.70;;;0.70;;
6077;SDS011;3067;49.470;10.394;2023-01-13T08:37:27;0.90;;;0.60;;
6077;SDS011;3067;49.470;10.394;2023-01-13T08:39:55;0.70;;;0.70;;
6077;SDS011;3067;49.470;10.394;2023-01-13T08:42:22;0.60;;;0.60;;
6077;SDS011;3067;49.470;10.394;2023-01-13T08:44:51;0.70;;;0.70;;
6077;SDS011;3067;49.470;10.394;2023-01-13T08:47:19;0.80;;;0.80;;
6077;SDS011;3067;49.470;10.394;2023-01-13T08:49:47;0.70;;;0.70;;
6077;SDS011;3067;49.470;10.394;2023-01-13T08:52:15;0.70;;;0.70;;
6077;SDS011;3067;49.470;10.394;2023-01-13T08:54:42;0.90;;;0.70;;
6077;SDS011;3067;49.470;10.394;2023-01-13T08:57:09;0.70;;;0.70;;
6077;SDS011;3067;49.470;10.394;2023-01-13T08:59:37;0.60;;;0.60;;
6077;SDS011;3067;49.470;10.394;2023-01-13T09:02:08;0.60;;;0.60;;
6077;SDS011;3067;49.470;10.394;2023-01-13T09:04:35;1.13;;;0.63;;
6077;SDS011;3067;49.470;10.394;2023-01-13T09:07:04;0.80;;;0.60;;
6077;SDS011;3067;49.470;10.394;2023-01-13T09:09:31;0.70;;;0.70;;
6077;SDS011;3067;49.470;10.394;2023-01-13T09:11:59;0.57;;;0.57;;
6077;SDS011;3067;49.470;10.394;2023-01-13T09:14:43;0.60;;;0.60;;
6077;SDS011;3067;49.470;10.394;2023-01-13T09:17:11;1.00;;;0.60;;
6077;SDS011;3067;49.470;10.394;2023-01-13T09:19:39;1.60;;;0.60;;
6077;SDS011;3067;49.470;10.394;2023-01-13T09:22:09;1.27;;;0.60;;
6077;SDS011;3067;49.470;10.394;2023-01-13T09:24:39;0.70;;;0.70;;
6077;SDS011;3067;49.470;10.394;2023-01-13T09:27:07;0.70;;;0.70;;
6077;SDS011;3067;49.470;10.394;2023-01-13T09:29:34;0.70;;;0.70;;
6077;SDS011;3067;49.470;10.394;2023-01-13T09:32:02;0.50;;;0.50;;
6077;SDS011;3067;49.470;10.394;2023-01-13T09:34:30;0.60;;;0.60;;
6077;SDS011;3067;49.470;10.394;2023-01-13T09:37:17;0.60;;;0.60;;
6077;SDS011;3067;49.470;10.394;2023-01-13T09:39:44;2.20;;;0.60;;
6077;SDS011;3067;49.470;10.394;2023-01-13T09:42:13;0.70;;;0.70;;
6077;SDS011;3067;49.470;10.394;2023-01-13T09:45:00;0.63;;;0.63;;
6077;SDS011;3067;49.470;10.394;2023-01-13T09:47:30;0.90;;;0.60;;
6077;SDS011;3067;49.470;10.394;2023-01-13T09:50:01;0.70;;;0.70;;
6077;SDS011;3067;49.470;10.394;2023-01-13T09:52:34;0.60;;;0.60;;
6077;SDS011;3067;49.470;10.394;2023-01-13T09:55:04;0.60;;;0.60;;
6077;SDS011;3067;49.470;10.394;2023-01-13T09:57:33;0.50;;;0.50;;
6077;SDS011;3067;49.470;10.394;2023-01-13T10:00:02;0.50;;;0.50;;
6077;SDS011;3067;49.470;10.394;2023-01-13T10:02:36;0.50;;;0.50;;
6077;SDS011;3067;49.470;10.394;2023-01-13T10:05:10;0.70;;;0.70;;
6077;SDS011;3067;49.470;10.394;2023-01-13T10:07:41;0.80;;;0.63;;
6077;SDS011;3067;49.470;10.394;2023-01-13T10:10:12;0.83;;;0.67;;
6077;SDS011;3067;49.470;10.394;2023-01-13T10:12:40;0.70;;;0.70;;
6077;SDS011;3067;49.470;10.394;2023-01-13T10:15:26;0.70;;;0.70;;
6077;SDS011;3067;49.470;10.394;2023-01-13T10:17:54;1.37;;;0.70;;
6077;SDS011;3067;49.470;10.394;2023-01-13T10:20:24;1.33;;;0.73;;
6077;SDS011;3067;49.470;10.394;2023-01-13T10:22:57;1.70;;;0.53;;
6077;SDS011;3067;49.470;10.394;2023-01-13T10:25:34;0.67;;;0.60;;
6077;SDS011;3067;49.470;10.394;2023-01-13T10:28:09;0.63;;;0.63;;
6077;SDS011;3067;49.470;10.394;2023-01-13T10:30:37;0.70;;;0.70;;
6077;SDS011;3067;49.470;10.394;2023-01-13T10:33:11;0.90;;;0.70;;
6077;SDS011;3067;49.470;10.394;2023-01-13T10:35:49;0.70;;;0.70;;
6077;SDS011;3067;49.470;10.394;2023-01-13T10:38:20;0.93;;;0.60;;
6077;SDS011;3067;49.470;10.394;2023-01-13T10:40:51;4.40;;;0.70;;
6077;SDS011;3067;49.470;10.394;2023-01-13T10:43:19;0.83;;;0.70;;
6077;SDS011;3067;49.470;10.394;2023-01-13T10:45:56;1.37;;;0.60;;
6077;SDS011;3067;49.470;10.394;2023-01-13T10:48:30;2.10;;;0.80;;
6077;SDS011;3067;49.470;10.394;2023-01-13T10:50:58;2.20;;;0.93;;
6077;SDS011;3067;49.470;10.394;2023-01-13T10:53:38;1.60;;;0.90;;
6077;SDS011;3067;49.470;10.394;2023-01-13T10:56:14;1.83;;;0.70;;
6077;SDS011;3067;49.470;10.394;2023-01-13T10:58:42;0.70;;;0.70;;
6077;SDS011;3067;49.470;10.394;2023-01-13T11:01:15;1.90;;;0.70;;
6077;SDS011;3067;49.470;10.394;2023-01-13T11:03:44;0.90;;;0.60;;
6077;SDS011;3067;49.470;10.394;2023-01-13T11:06:18;0.70;;;0.70;;
6077;SDS011;3067;49.470;10.394;2023-01-13T11:08:48;0.60;;;0.60;;
6077;SDS011;3067;49.470;10.394;2023-01-13T11:14:12;0.70;;;0.70;;
6077;SDS011;3067;49.470;10.394;2023-01-13T11:17:02;0.60;;;0.60;;
6077;SDS011;3067;49.470;10.394;2023-01-13T11:19:34;2.77;;;0.70;;
6077;SDS011;3067;49.470;10.394;2023-01-13T11:22:04;1.07;;;0.70;;
6077;SDS011;3067;49.470;10.394;2023-01-13T11:24:35;1.03;;;0.70;;
6077;SDS011;3067;49.470;10.394;2023-01-13T11:27:05;1.33;;;0.90;;
6077;SDS011;3067;49.470;10.394;2023-01-13T11:29:36;3.70;;;0.70;;
6077;SDS011;3067;49.470;10.394;2023-01-13T11:32:07;1.43;;;0.93;;
6077;SDS011;3067;49.470;10.394;2023-01-13T11:34:38;0.73;;;0.73;;
6077;SDS011;3067;49.470;10.394;2023-01-13T11:37:07;1.50;;;0.80;;
6077;SDS011;3067;49.470;10.394;2023-01-13T11:39:40;2.00;;;0.90;;
6077;SDS011;3067;49.470;10.394;2023-01-13T11:42:11;0.80;;;0.80;;
6077;SDS011;3067;49.470;10.394;2023-01-13T11:44:49;2.40;;;1.00;;
6077;SDS011;3067;49.470;10.394;2023-01-13T11:47:20;1.73;;;1.47;;
6077;SDS011;3067;49.470;10.394;2023-01-13T11:49:47;3.57;;;1.00;;
6077;SDS011;3067;49.470;10.394;2023-01-13T11:52:16;1.03;;;1.03;;
6077;SDS011;3067;49.470;10.394;2023-01-13T11:57:36;1.10;;;1.00;;
6077;SDS011;3067;49.470;10.394;2023-01-13T12:00:20;2.90;;;1.03;;
6077;SDS011;3067;49.470;10.394;2023-01-13T12:02:54;2.00;;;1.07;;
6077;SDS011;3067;49.470;10.394;2023-01-13T12:05:26;2.60;;;1.07;;
6077;SDS011;3067;49.470;10.394;2023-01-13T12:07:57;2.07;;;1.13;;
6077;SDS011;3067;49.470;10.394;2023-01-13T12:10:33;4.30;;;1.10;;
6077;SDS011;3067;49.470;10.394;2023-01-13T12:13:07;3.87;;;1.43;;
6077;SDS011;3067;49.470;10.394;2023-01-13T12:15:53;2.50;;;1.20;;
6077;SDS011;3067;49.470;10.394;2023-01-13T12:18:29;4.00;;;1.20;;
6077;SDS011;3067;49.470;10.394;2023-01-13T12:21:03;4.87;;;1.07;;
6077;SDS011;3067;49.470;10.394;2023-01-13T12:23:33;1.50;;;1.40;;
6077;SDS011;3067;49.470;10.394;2023-01-13T12:26:04;2.00;;;1.20;;
6077;SDS011;3067;49.470;10.394;2023-01-13T12:28:36;4.87;;;1.50;;
6077;SDS011;3067;49.470;10.394;2023-01-13T12:31:05;1.30;;;1.30;;
6077;SDS011;3067;49.470;10.394;2023-01-13T12:33:37;1.17;;;0.93;;
6077;SDS011;3067;49.470;10.394;2023-01-13T12:36:10;7.13;;;1.97;;
6077;SDS011;3067;49.470;10.394;2023-01-13T12:38:43;1.07;;;1.07;;
6077;SDS011;3067;49.470;10.394;2023-01-13T12:41:13;2.10;;;1.23;;
6077;SDS011;3067;49.470;10.394;2023-01-13T12:43:44;1.50;;;1.40;;
6077;SDS011;3067;49.470;10.394;2023-01-13T12:46:33;1.50;;;1.23;;
6077;SDS011;3067;49.470;10.394;2023-01-13T12:49:16;1.20;;;1.10;;
6077;SDS011;3067;49.470;10.394;2023-01-13T12:57:18;6.97;;;1.10;;
6077;SDS011;3067;49.470;10.394;2023-01-13T13:02:31;3.40;;;1.10;;
6077;SDS011;3067;49.470;10.394;2023-01-13T13:05:00;1.33;;;1.00;;
6077;SDS011;3067;49.470;10.394;2023-01-13T13:07:39;1.17;;;0.90;;
6077;SDS011;3067;49.470;10.394;2023-01-13T13:10:12;2.47;;;1.10;;
6077;SDS011;3067;49.470;10.394;2023-01-13T13:12:51;2.30;;;1.20;;
6077;SDS011;3067;49.470;10.394;2023-01-13T13:15:36;4.00;;;1.53;;
6077;SDS011;3067;49.470;10.394;2023-01-13T13:18:18;2.23;;;2.03;;
6077;SDS011;3067;49.470;10.394;2023-01-13T13:20:52;2.10;;;1.00;;
6077;SDS011;3067;49.470;10.394;2023-01-13T13:26:15;4.50;;;1.27;;
6077;SDS011;3067;49.470;10.394;2023-01-13T13:28:46;2.03;;;1.20;;
6077;SDS011;3067;49.470;10.394;2023-01-13T13:31:20;3.97;;;1.10;;
6077;SDS011;3067;49.470;10.394;2023-01-13T13:33:55;2.60;;;1.10;;
6077;SDS011;3067;49.470;10.394;2023-01-13T13:36:37;3.27;;;0.97;;
6077;SDS011;3067;49.470;10.394;2023-01-13T13:39:15;1.07;;;1.07;;
6077;SDS011;3067;49.470;10.394;2023-01-13T13:42:03;6.53;;;1.50;;
6077;SDS011;3067;49.470;10.394;2023-01-13T13:44:53;3.63;;;1.20;;
6077;SDS011;3067;49.470;10.394;2023-01-13T13:47:38;2.70;;;1.00;;
6077;SDS011;3067;49.470;10.394;2023-01-13T13:50:08;5.07;;;1.10;;
6077;SDS011;3067;49.470;10.394;2023-01-13T13:52:39;1.30;;;1.10;;
6077;SDS011;3067;49.470;10.394;2023-01-13T13:55:07;4.97;;;1.13;;
6077;SDS011;3067;49.470;10.394;2023-01-13T13:57:37;1.00;;;0.90;;
6077;SDS011;3067;49.470;10.394;2023-01-13T14:00:08;4.23;;;1.20;;
6077;SDS011;3067;49.470;10.394;2023-01-13T14:02:45;1.57;;;1.20;;
6077;SDS011;3067;49.470;10.394;2023-01-13T14:05:18;6.80;;;1.20;;
6077;SDS011;3067;49.470;10.394;2023-01-13T14:07:46;2.93;;;1.00;;
6077;SDS011;3067;49.470;10.394;2023-01-13T14:10:15;2.20;;;1.27;;
6077;SDS011;3067;49.470;10.394;2023-01-13T14:12:44;6.47;;;1.17;;
6077;SDS011;3067;49.470;10.394;2023-01-13T14:15:24;4.63;;;0.97;;
6077;SDS011;3067;49.470;10.394;2023-01-13T14:17:52;2.40;;;1.50;;
6077;SDS011;3067;49.470;10.394;2023-01-13T14:20:21;5.70;;;1.03;;
6077;SDS011;3067;49.470;10.394;2023-01-13T14:22:48;8.17;;;0.93;;
6077;SDS011;3067;49.470;10.394;2023-01-13T14:25:25;6.93;;;1.40;;
6077;SDS011;3067;49.470;10.394;2023-01-13T14:27:53;2.13;;;0.80;;
6077;SDS011;3067;49.470;10.394;2023-01-13T14:30:21;10.13;;;1.20;;
6077;SDS011;3067;49.470;10.394;2023-01-13T14:32:48;2.53;;;1.07;;
6077;SDS011;3067;49.470;10.394;2023-01-13T14:35:16;5.47;;;1.30;;
6077;SDS011;3067;49.470;10.394;2023-01-13T14:37:45;2.30;;;1.20;;
6077;SDS011;3067;49.470;10.394;2023-01-13T14:43:12;4.10;;;1.00;;
6077;SDS011;3067;49.470;10.394;2023-01-13T14:45:41;5.17;;;1.20;;
6077;SDS011;3067;49.470;10.394;2023-01-13T14:48:12;2.93;;;1.20;;
6077;SDS011;3067;49.470;10.394;2023-01-13T14:50:39;1.97;;;1.13;;
6077;SDS011;3067;49.470;10.394;2023-01-13T14:55:50;1.80;;;1.10;;
6077;SDS011;3067;49.470;10.394;2023-01-13T14:58:24;4.30;;;1.53;;
6077;SDS011;3067;49.470;10.394;2023-01-13T15:03:38;1.23;;;1.23;;
6077;SDS011;3067;49.470;10.394;2023-01-13T15:06:19;2.03;;;1.07;;
6077;SDS011;3067;49.470;10.394;2023-01-13T15:08:48;3.63;;;1.60;;
6077;SDS011;3067;49.470;10.394;2023-01-13T15:11:19;5.50;;;1.97;;
6077;SDS011;3067;49.470;10.394;2023-01-13T15:13:49;3.53;;;1.67;;
6077;SDS011;3067;49.470;10.394;2023-01-13T15:16:19;4.10;;;1.60;;
6077;SDS011;3067;49.470;10.394;2023-01-13T15:18:48;5.83;;;1.70;;
6077;SDS011;3067;49.470;10.394;2023-01-13T15:21:16;2.87;;;1.50;;
6077;SDS011;3067;49.470;10.394;2023-01-13T15:23:43;6.83;;;1.30;;
6077;SDS011;3067;49.470;10.394;2023-01-13T15:26:23;4.97;;;1.50;;
6077;SDS011;3067;49.470;10.394;2023-01-13T15:28:51;8.33;;;1.40;;
6077;SDS011;3067;49.470;10.394;2023-01-13T15:31:19;2.50;;;1.17;;
6077;SDS011;3067;49.470;10.394;2023-01-13T15:33:47;2.47;;;1.13;;
6077;SDS011;3067;49.470;10.394;2023-01-13T15:36:17;1.43;;;1.20;;
6077;SDS011;3067;49.470;10.394;2023-01-13T15:38:45;4.30;;;1.57;;
6077;SDS011;3067;49.470;10.394;2023-01-13T15:41:12;4.50;;;1.20;;
6077;SDS011;3067;49.470;10.394;2023-01-13T15:43:41;3.60;;;1.23;;
6077;SDS011;3067;49.470;10.394;2023-01-13T15:46:26;6.00;;;1.33;;
6077;SDS011;3067;49.470;10.394;2023-01-13T15:49:06;6.57;;;1.83;;